Terminal Aerodrome Forecast
Issued by NWS

Home | Current Version | Previous Version | Text Only | Print | Product List | Glossary On
Versions: 1 2 3 4 5 6 7 8 9 10 11 12 13 14 15
000
FTUS42 TJSJ 292341
TAFJBQ
TAF
TJBQ 292341Z 3000/3024 10013G19KT P6SM SCT016
     FM300600 10008KT P6SM SCT018
     FM301330 08015G25KT P6SM FEW025 SCT050
     FM301730 08018G26KT P6SM VCTS SCT025 BKN040CB
     FM302100 10012G18KT P6SM VCSH SCT020 SCT035=

USA.gov is the U.S. government's official web portal to all federal, state and local government web resources and services.